createdAt,value
2022-10-19T07:52:34.456Z,1.90
2022-10-19T07:55:04.946Z,1.60
2022-10-19T07:57:31.995Z,1.90
2022-10-19T07:59:59.091Z,1.30
2022-10-19T08:02:30.873Z,1.00
2022-10-19T08:05:10.546Z,1.20
2022-10-19T08:07:38.785Z,0.90
2022-10-19T08:10:06.474Z,1.30
2022-10-19T08:12:36.839Z,1.30
2022-10-19T08:15:07.305Z,1.30
2022-10-19T08:17:37.811Z,1.50
2022-10-19T08:20:05.798Z,1.10
2022-10-19T08:22:33.092Z,1.10
2022-10-19T08:25:00.408Z,1.20
2022-10-19T08:27:27.591Z,1.20
2022-10-19T08:29:55.246Z,0.90
2022-10-19T08:32:22.260Z,0.80
2022-10-19T08:34:49.516Z,1.10
2022-10-19T08:37:26.264Z,1.20
2022-10-19T08:40:04.703Z,1.10
2022-10-19T08:42:48.853Z,1.00
2022-10-19T08:45:45.397Z,1.10
2022-10-19T08:48:15.509Z,1.10
2022-10-19T08:50:44.044Z,0.90
2022-10-19T08:53:40.321Z,0.90
2022-10-19T08:56:51.064Z,0.80
2022-10-19T08:59:30.864Z,0.90
2022-10-19T09:02:24.204Z,1.10
2022-10-19T09:12:13.285Z,0.70
2022-10-19T09:21:15.169Z,0.60
2022-10-19T09:24:03.002Z,0.70
2022-10-19T09:26:31.994Z,0.70
2022-10-19T09:29:07.032Z,0.40
2022-10-19T09:31:42.955Z,0.70
2022-10-19T09:34:25.735Z,0.40
2022-10-19T09:36:54.134Z,0.40
2022-10-19T09:39:22.593Z,0.50
2022-10-19T09:41:55.857Z,0.50
2022-10-19T09:44:23.741Z,0.50
2022-10-19T09:46:56.928Z,0.80
2022-10-19T09:49:49.561Z,0.40
2022-10-19T09:52:38.321Z,0.50
2022-10-19T09:55:07.990Z,0.70
2022-10-19T09:57:45.001Z,0.60
2022-10-19T10:00:19.636Z,0.50
2022-10-19T10:02:51.185Z,0.50
2022-10-19T10:05:18.739Z,0.60
2022-10-19T10:07:45.891Z,0.40
2022-10-19T10:10:28.176Z,0.40
2022-10-19T10:13:00.569Z,0.60
2022-10-19T10:15:29.321Z,0.40
2022-10-19T10:17:56.297Z,0.70
2022-10-19T10:20:27.887Z,0.50
2022-10-19T10:23:18.910Z,0.40
2022-10-19T10:25:46.114Z,0.50
2022-10-19T10:28:20.328Z,0.60
2022-10-19T10:30:48.126Z,0.70
2022-10-19T10:33:27.061Z,1.40
2022-10-19T10:36:10.144Z,0.90
2022-10-19T10:38:47.836Z,0.40
2022-10-19T10:41:17.737Z,0.70
2022-10-19T10:43:53.816Z,1.10
2022-10-19T10:46:24.973Z,0.90
2022-10-19T10:48:59.283Z,1.60
2022-10-19T10:51:49.285Z,1.80
2022-10-19T10:54:27.259Z,1.00
2022-10-19T10:57:14.243Z,1.30
2022-10-19T10:59:53.616Z,1.20
2022-10-19T11:02:42.132Z,1.20
2022-10-19T11:05:26.928Z,1.90
2022-10-19T11:08:15.485Z,1.80
2022-10-19T11:10:53.556Z,0.80
2022-10-19T11:13:41.727Z,1.60
2022-10-19T11:16:23.109Z,1.30
2022-10-19T11:19:08.836Z,1.90
2022-10-19T11:21:44.602Z,1.90
2022-10-19T11:24:21.453Z,1.80
2022-10-19T11:27:12.148Z,1.90
2022-10-19T11:30:16.751Z,2.60
2022-10-19T12:46:00.060Z,2.00
2022-10-19T12:48:27.204Z,2.00
2022-10-19T12:50:54.278Z,2.10
2022-10-19T12:56:09.865Z,3.60
2022-10-19T12:59:04.133Z,2.80
2022-10-19T13:01:34.352Z,3.20
2022-10-19T13:04:11.643Z,2.00
2022-10-19T13:06:41.862Z,3.00
2022-10-19T13:09:09.997Z,1.90
2022-10-19T13:11:38.883Z,1.80
2022-10-19T13:14:07.240Z,1.90
2022-10-19T13:16:37.527Z,2.30
2022-10-19T13:19:13.998Z,3.20
2022-10-19T13:21:52.867Z,3.50
2022-10-19T13:24:24.881Z,2.40
2022-10-19T13:27:04.200Z,2.80
2022-10-19T13:29:38.337Z,2.40
2022-10-19T13:32:30.528Z,2.20
2022-10-19T13:35:27.209Z,2.90
2022-10-19T13:38:13.020Z,3.00
2022-10-19T13:40:49.281Z,4.30
2022-10-19T13:43:29.918Z,4.40
2022-10-19T13:46:09.937Z,3.20
2022-10-19T13:49:02.028Z,2.20
2022-10-19T13:51:54.358Z,3.50
2022-10-19T13:54:46.797Z,6.10
2022-10-19T13:57:26.638Z,5.40
2022-10-19T14:00:02.801Z,4.40
2022-10-19T14:03:24.221Z,2.20
2022-10-19T14:06:03.165Z,3.10
2022-10-19T14:08:51.988Z,3.00
2022-10-19T14:11:26.815Z,2.40
2022-10-19T14:14:15.491Z,2.00
2022-10-19T14:16:54.456Z,1.80
2022-10-19T14:19:50.697Z,2.60
2022-10-19T14:22:30.242Z,3.70
2022-10-19T14:25:18.495Z,3.70
2022-10-19T14:27:51.122Z,2.20
2022-10-19T14:30:23.056Z,2.90
2022-10-19T14:32:50.185Z,4.10
2022-10-19T14:35:39.979Z,4.70
2022-10-19T14:38:08.749Z,3.00
2022-10-19T14:40:40.126Z,2.40
2022-10-19T14:43:22.084Z,2.40
2022-10-19T14:46:07.887Z,1.70
2022-10-19T14:48:35.961Z,2.00
2022-10-19T14:51:03.107Z,1.80
2022-10-19T14:54:03.958Z,1.50
2022-10-19T14:56:49.326Z,1.40
2022-10-19T14:59:46.618Z,1.80
2022-10-19T15:02:33.439Z,4.50
2022-10-19T15:05:01.356Z,4.80
2022-10-19T15:07:38.356Z,2.40
2022-10-19T15:10:35.600Z,2.40
2022-10-19T15:13:06.473Z,2.30
2022-10-19T15:15:35.007Z,2.40
2022-10-19T15:18:02.098Z,1.90
2022-10-19T15:20:31.375Z,2.20
2022-10-19T15:23:01.987Z,1.60
2022-10-19T15:25:37.431Z,2.50
2022-10-19T15:28:36.082Z,2.30
2022-10-19T15:31:17.709Z,3.50
2022-10-19T15:33:49.160Z,2.90
2022-10-19T15:36:19.899Z,3.40
2022-10-19T15:39:18.405Z,2.80
2022-10-19T15:41:51.056Z,3.30
2022-10-19T15:44:43.907Z,2.90
2022-10-19T15:47:19.588Z,4.10
2022-10-19T15:49:47.120Z,4.70
2022-10-19T15:52:18.896Z,2.20
2022-10-19T15:54:54.337Z,1.40
2022-10-19T15:57:38.163Z,1.90
2022-10-19T16:00:14.211Z,1.40
2022-10-19T16:02:43.525Z,1.10
2022-10-19T16:05:11.177Z,2.00
2022-10-19T16:07:39.471Z,2.60
2022-10-19T16:10:07.764Z,2.60
2022-10-19T16:12:34.781Z,2.20
2022-10-19T16:15:01.930Z,2.00
2022-10-19T16:17:29.039Z,2.50
2022-10-19T16:19:56.019Z,2.10
2022-10-19T16:22:22.934Z,1.80
2022-10-19T16:24:52.272Z,2.40
2022-10-19T16:27:19.420Z,2.60
2022-10-19T16:29:46.467Z,2.70
2022-10-19T16:32:13.681Z,3.50
2022-10-19T16:34:41.590Z,3.40
2022-10-19T16:37:08.730Z,3.90
2022-10-19T16:39:35.778Z,3.90
2022-10-19T16:42:02.822Z,3.20
2022-10-19T16:44:29.971Z,2.50
2022-10-19T16:46:57.978Z,2.50
2022-10-19T16:49:25.079Z,2.70
2022-10-19T16:51:54.854Z,3.90
2022-10-19T16:54:24.713Z,4.10
2022-10-19T16:56:51.963Z,3.60
2022-10-19T16:59:19.154Z,3.70
2022-10-19T17:01:47.035Z,4.50
2022-10-19T17:04:15.221Z,4.50
2022-10-19T17:06:42.407Z,4.00
2022-10-19T17:11:57.123Z,3.80
2022-10-19T17:14:24.165Z,3.60
2022-10-19T17:16:52.098Z,3.40
2022-10-19T17:19:21.842Z,2.50
2022-10-19T17:21:49.601Z,2.10
2022-10-19T17:24:21.748Z,2.80
2022-10-19T17:26:56.450Z,3.10
2022-10-19T17:29:23.622Z,1.80
2022-10-19T17:31:50.702Z,2.10
2022-10-19T17:34:17.839Z,1.60
2022-10-19T17:36:45.336Z,1.80
2022-10-19T17:39:24.239Z,1.70
2022-10-19T17:41:54.637Z,1.90
2022-10-19T17:44:22.178Z,1.60
2022-10-19T17:46:49.246Z,1.30
2022-10-19T17:49:16.692Z,1.10
2022-10-19T17:51:43.958Z,1.20
2022-10-19T17:54:14.671Z,1.20
2022-10-19T17:56:45.351Z,1.30
2022-10-19T17:59:13.082Z,1.20
2022-10-19T18:01:40.321Z,1.20
2022-10-19T18:04:07.383Z,1.90
2022-10-19T18:06:36.361Z,1.20
2022-10-19T18:09:06.084Z,1.00
2022-10-19T18:11:37.420Z,1.50
2022-10-19T18:14:05.283Z,1.30
2022-10-19T18:16:46.022Z,1.30
2022-10-19T18:19:17.094Z,1.40
2022-10-19T18:21:47.906Z,1.20
2022-10-19T18:24:20.640Z,1.40
2022-10-19T18:26:51.442Z,2.10
2022-10-19T18:29:29.879Z,1.30
2022-10-19T18:38:04.569Z,1.10
2022-10-19T18:44:04.609Z,0.80
2022-10-19T18:46:33.243Z,1.10
2022-10-19T18:49:00.711Z,1.80
2022-10-19T18:51:27.806Z,0.80
2022-10-19T18:53:55.113Z,0.90
2022-10-19T18:56:22.975Z,1.40
2022-10-19T18:58:50.503Z,1.40
2022-10-19T19:01:24.244Z,1.40
2022-10-19T19:03:52.742Z,1.50
2022-10-19T19:06:22.222Z,1.40
2022-10-19T19:08:49.689Z,1.00
2022-10-19T19:11:21.441Z,0.80
2022-10-19T19:13:49.612Z,1.00
2022-10-19T19:16:17.072Z,1.20
2022-10-19T19:18:44.319Z,1.00
2022-10-19T19:21:19.873Z,0.80
2022-10-19T19:23:47.359Z,1.10
2022-10-19T19:26:14.578Z,1.10
2022-10-19T19:28:42.322Z,1.20
2022-10-19T19:31:10.824Z,0.70
2022-10-19T19:33:38.691Z,1.00
2022-10-19T19:36:06.717Z,1.00
2022-10-19T19:38:33.918Z,0.70
2022-10-19T19:41:03.559Z,0.50
2022-10-19T19:43:31.563Z,0.50
2022-10-19T19:46:02.031Z,0.70
2022-10-19T19:48:31.707Z,0.70
2022-10-19T19:50:58.652Z,0.60
2022-10-19T19:53:25.974Z,0.90
2022-10-19T19:55:52.869Z,0.80
2022-10-19T19:58:20.164Z,0.80
2022-10-19T20:00:47.076Z,1.20
2022-10-19T20:03:14.085Z,0.50
2022-10-19T20:05:40.995Z,1.00
2022-10-19T20:09:55.008Z,0.90
2022-10-19T20:12:22.259Z,0.90
2022-10-19T20:14:49.407Z,0.70
2022-10-19T20:17:16.765Z,0.60
2022-10-19T20:19:43.912Z,0.80
2022-10-19T20:22:13.246Z,0.70
2022-10-19T20:24:40.565Z,0.90
2022-10-19T20:27:07.611Z,0.80
2022-10-19T20:29:34.659Z,0.90
2022-10-19T20:32:01.687Z,1.10
2022-10-19T20:34:28.676Z,0.80
2022-10-19T20:36:55.627Z,0.80
2022-10-19T20:39:22.482Z,0.90
2022-10-19T20:41:49.447Z,0.70
2022-10-19T20:44:16.403Z,0.40
2022-10-19T20:46:43.327Z,0.60
2022-10-19T20:49:13.637Z,0.40
2022-10-19T20:51:40.585Z,0.40
2022-10-19T20:54:12.229Z,0.50
2022-10-19T20:56:40.008Z,0.30
2022-10-19T20:59:17.045Z,0.20
2022-10-19T21:01:44.850Z,0.30
2022-10-19T21:04:13.499Z,0.20
2022-10-19T21:09:26.255Z,0.30
2022-10-19T21:11:53.529Z,0.30
2022-10-19T21:14:25.332Z,0.30
2022-10-19T21:16:58.557Z,0.20
2022-10-19T21:19:26.834Z,0.30
2022-10-19T21:21:55.789Z,0.30
2022-10-19T21:24:27.687Z,0.20
2022-10-19T21:26:54.737Z,0.30
2022-10-19T21:29:22.412Z,0.30
2022-10-19T21:31:50.186Z,0.20
2022-10-19T21:34:22.489Z,0.40
2022-10-19T21:36:49.704Z,0.40
2022-10-19T21:39:17.388Z,0.50
2022-10-19T21:41:44.499Z,0.40
2022-10-19T21:44:11.547Z,0.40
2022-10-19T21:46:38.909Z,0.40
2022-10-19T21:49:06.057Z,0.20
2022-10-19T21:51:55.113Z,0.40
2022-10-19T21:54:25.108Z,0.80
2022-10-19T21:56:53.472Z,0.60
2022-10-19T21:59:20.654Z,0.50
2022-10-19T22:01:48.050Z,0.50
2022-10-19T22:04:16.741Z,0.50
2022-10-19T22:06:51.116Z,0.50
2022-10-19T22:09:22.075Z,0.50
2022-10-19T22:11:52.380Z,0.30
2022-10-19T22:14:21.264Z,0.30
2022-10-19T22:16:48.413Z,0.40
2022-10-19T22:19:15.458Z,0.30
2022-10-19T22:21:45.568Z,0.40
2022-10-19T22:24:14.266Z,0.60
2022-10-19T22:26:50.933Z,0.40
2022-10-19T22:29:18.118Z,0.30
2022-10-19T22:31:45.340Z,0.30
2022-10-19T22:34:14.640Z,0.40
2022-10-19T22:36:42.199Z,0.40
2022-10-19T22:39:09.385Z,0.60
2022-10-19T22:41:43.868Z,0.60
2022-10-19T22:44:11.222Z,0.60
2022-10-19T22:46:38.477Z,0.50
2022-10-19T22:49:05.678Z,1.00
2022-10-19T22:51:32.773Z,0.40
2022-10-19T22:53:59.821Z,0.50
2022-10-19T22:56:26.998Z,0.40
2022-10-19T22:58:58.429Z,0.60
2022-10-19T23:01:25.624Z,0.80
2022-10-19T23:03:52.617Z,0.60
2022-10-19T23:06:19.666Z,0.40
2022-10-19T23:08:46.794Z,0.60
2022-10-19T23:11:14.517Z,1.10
2022-10-19T23:13:41.627Z,0.50
2022-10-19T23:16:09.009Z,0.70
2022-10-19T23:18:37.156Z,0.50
2022-10-19T23:21:06.249Z,0.80
2022-10-19T23:23:33.848Z,0.70
2022-10-19T23:26:08.807Z,0.60
2022-10-19T23:28:37.836Z,0.60
2022-10-19T23:31:14.201Z,0.40
2022-10-19T23:33:41.289Z,0.70
2022-10-19T23:36:11.638Z,0.70
2022-10-19T23:38:38.623Z,0.60
2022-10-19T23:41:05.985Z,0.70
2022-10-19T23:43:33.168Z,0.60
2022-10-19T23:46:00.373Z,0.80
2022-10-19T23:48:27.366Z,0.40
2022-10-19T23:51:01.228Z,0.80
2022-10-19T23:53:28.934Z,0.60
2022-10-19T23:56:03.717Z,0.60
2022-10-19T23:58:30.970Z,0.40
